sensor_id;sensor_type;location;lat;lon;timestamp;pressure;altitude;pressure_sealevel;temperature;humidity
9439;BME280;5176;42.622;25.386;2023-04-26T00:01:26;96253.19;;;13.86;91.96
9439;BME280;5176;42.622;25.386;2023-04-26T00:03:55;96243.38;;;13.78;91.27
9439;BME280;5176;42.622;25.386;2023-04-26T00:06:24;96246.28;;;13.75;91.97
9439;BME280;5176;42.622;25.386;2023-04-26T00:08:53;96250.72;;;13.75;91.22
9439;BME280;5176;42.622;25.386;2023-04-26T00:11:22;96244.47;;;13.76;93.25
9439;BME280;5176;42.622;25.386;2023-04-26T00:13:50;96241.00;;;13.75;94.66
9439;BME280;5176;42.622;25.386;2023-04-26T00:16:20;96246.13;;;13.77;94.76
9439;BME280;5176;42.622;25.386;2023-04-26T00:18:49;96238.66;;;13.72;93.26
9439;BME280;5176;42.622;25.386;2023-04-26T00:21:18;96241.72;;;13.68;91.98
9439;BME280;5176;42.622;25.386;2023-04-26T00:23:47;96236.19;;;13.61;92.81
9439;BME280;5176;42.622;25.386;2023-04-26T00:26:15;96238.13;;;13.49;92.24
9439;BME280;5176;42.622;25.386;2023-04-26T00:28:44;96240.38;;;13.44;94.04
9439;BME280;5176;42.622;25.386;2023-04-26T00:31:13;96242.56;;;13.49;94.16
9439;BME280;5176;42.622;25.386;2023-04-26T00:33:44;96239.25;;;13.47;93.02
9439;BME280;5176;42.622;25.386;2023-04-26T00:36:13;96239.09;;;13.48;93.60
9439;BME280;5176;42.622;25.386;2023-04-26T00:38:45;96238.69;;;13.53;93.32
9439;BME280;5176;42.622;25.386;2023-04-26T00:41:14;96219.16;;;13.46;94.29
9439;BME280;5176;42.622;25.386;2023-04-26T00:43:43;96234.25;;;13.44;93.62
9439;BME280;5176;42.622;25.386;2023-04-26T00:46:12;96231.22;;;13.39;96.27
9439;BME280;5176;42.622;25.386;2023-04-26T00:48:40;96234.53;;;13.41;96.99
9439;BME280;5176;42.622;25.386;2023-04-26T00:51:11;96237.88;;;13.33;96.08
9439;BME280;5176;42.622;25.386;2023-04-26T00:53:40;96228.31;;;13.22;96.87
9439;BME280;5176;42.622;25.386;2023-04-26T00:56:10;96230.78;;;13.14;98.33
9439;BME280;5176;42.622;25.386;2023-04-26T00:58:40;96232.00;;;13.10;100.00
9439;BME280;5176;42.622;25.386;2023-04-26T01:01:08;96232.97;;;13.09;100.00
9439;BME280;5176;42.622;25.386;2023-04-26T01:03:37;96230.63;;;13.06;100.00
9439;BME280;5176;42.622;25.386;2023-04-26T01:06:05;96224.69;;;13.04;100.00
9439;BME280;5176;42.622;25.386;2023-04-26T01:08:36;96223.44;;;13.08;100.00
9439;BME280;5176;42.622;25.386;2023-04-26T01:11:04;96219.44;;;13.04;100.00
9439;BME280;5176;42.622;25.386;2023-04-26T01:13:34;96220.25;;;13.04;100.00
9439;BME280;5176;42.622;25.386;2023-04-26T01:16:06;96215.69;;;13.06;100.00
9439;BME280;5176;42.622;25.386;2023-04-26T01:18:35;96217.34;;;13.07;100.00
9439;BME280;5176;42.622;25.386;2023-04-26T01:21:04;96212.75;;;13.09;100.00
9439;BME280;5176;42.622;25.386;2023-04-26T01:23:34;96209.31;;;13.09;100.00
9439;BME280;5176;42.622;25.386;2023-04-26T01:26:03;96209.16;;;13.10;100.00
9439;BME280;5176;42.622;25.386;2023-04-26T01:28:33;96207.50;;;13.09;100.00
9439;BME280;5176;42.622;25.386;2023-04-26T01:31:02;96209.03;;;13.12;100.00
9439;BME280;5176;42.622;25.386;2023-04-26T01:33:31;96209.56;;;13.16;100.00
9439;BME280;5176;42.622;25.386;2023-04-26T01:36:00;96197.13;;;13.18;100.00
9439;BME280;5176;42.622;25.386;2023-04-26T01:38:29;96194.91;;;13.13;100.00
9439;BME280;5176;42.622;25.386;2023-04-26T01:40:59;96191.44;;;13.03;100.00
9439;BME280;5176;42.622;25.386;2023-04-26T01:43:28;96187.44;;;13.08;100.00
9439;BME280;5176;42.622;25.386;2023-04-26T01:45:57;96185.63;;;13.09;100.00
9439;BME280;5176;42.622;25.386;2023-04-26T01:48:26;96177.88;;;13.07;100.00
9439;BME280;5176;42.622;25.386;2023-04-26T01:50:54;96178.84;;;13.06;100.00
9439;BME280;5176;42.622;25.386;2023-04-26T01:53:23;96167.22;;;12.99;100.00
9439;BME280;5176;42.622;25.386;2023-04-26T01:55:52;96168.59;;;13.03;100.00
9439;BME280;5176;42.622;25.386;2023-04-26T01:58:23;96162.50;;;13.03;100.00
9439;BME280;5176;42.622;25.386;2023-04-26T02:00:51;96165.84;;;13.05;100.00
9439;BME280;5176;42.622;25.386;2023-04-26T02:03:20;96156.56;;;13.01;100.00
9439;BME280;5176;42.622;25.386;2023-04-26T02:05:49;96153.94;;;13.01;100.00
9439;BME280;5176;42.622;25.386;2023-04-26T02:08:18;96151.97;;;13.03;100.00
9439;BME280;5176;42.622;25.386;2023-04-26T02:10:47;96147.41;;;12.95;100.00
9439;BME280;5176;42.622;25.386;2023-04-26T02:13:16;96150.19;;;12.94;100.00
9439;BME280;5176;42.622;25.386;2023-04-26T02:15:47;96143.53;;;12.90;100.00
9439;BME280;5176;42.622;25.386;2023-04-26T02:18:16;96144.22;;;12.82;100.00
9439;BME280;5176;42.622;25.386;2023-04-26T02:20:47;96125.97;;;12.71;100.00
9439;BME280;5176;42.622;25.386;2023-04-26T02:23:16;96147.69;;;12.82;100.00
9439;BME280;5176;42.622;25.386;2023-04-26T02:25:46;96146.31;;;12.88;100.00
9439;BME280;5176;42.622;25.386;2023-04-26T02:28:15;96144.09;;;12.83;100.00
9439;BME280;5176;42.622;25.386;2023-04-26T02:30:45;96148.53;;;12.83;100.00
9439;BME280;5176;42.622;25.386;2023-04-26T02:33:14;96147.00;;;12.80;100.00
9439;BME280;5176;42.622;25.386;2023-04-26T02:35:42;96147.69;;;12.82;100.00
9439;BME280;5176;42.622;25.386;2023-04-26T02:38:11;96147.28;;;12.77;100.00
9439;BME280;5176;42.622;25.386;2023-04-26T02:40:40;96150.03;;;12.76;100.00
9439;BME280;5176;42.622;25.386;2023-04-26T02:43:08;96151.16;;;12.83;100.00
9439;BME280;5176;42.622;25.386;2023-04-26T02:45:40;96148.94;;;12.78;100.00
9439;BME280;5176;42.622;25.386;2023-04-26T02:48:11;96147.97;;;12.79;100.00
9439;BME280;5176;42.622;25.386;2023-04-26T02:50:40;96153.38;;;12.88;100.00
9439;BME280;5176;42.622;25.386;2023-04-26T02:53:09;96149.91;;;12.87;100.00
9439;BME280;5176;42.622;25.386;2023-04-26T02:55:38;96151.44;;;12.90;100.00
9439;BME280;5176;42.622;25.386;2023-04-26T02:58:07;96162.66;;;12.92;100.00
9439;BME280;5176;42.622;25.386;2023-04-26T03:00:36;96154.19;;;12.88;100.00
9439;BME280;5176;42.622;25.386;2023-04-26T03:03:04;96163.75;;;12.89;100.00
9439;BME280;5176;42.622;25.386;2023-04-26T03:05:34;96173.03;;;12.93;100.00
9439;BME280;5176;42.622;25.386;2023-04-26T03:08:04;96176.50;;;12.94;100.00
9439;BME280;5176;42.622;25.386;2023-04-26T03:10:33;96186.31;;;12.92;100.00
9439;BME280;5176;42.622;25.386;2023-04-26T03:13:03;96184.09;;;12.87;100.00
9439;BME280;5176;42.622;25.386;2023-04-26T03:15:31;96189.50;;;12.86;100.00
9439;BME280;5176;42.622;25.386;2023-04-26T03:18:01;96187.97;;;12.83;100.00
9439;BME280;5176;42.622;25.386;2023-04-26T03:20:29;96197.13;;;12.79;100.00
9439;BME280;5176;42.622;25.386;2023-04-26T03:22:59;96202.91;;;12.82;100.00
9439;BME280;5176;42.622;25.386;2023-04-26T03:25:28;96201.25;;;12.81;100.00
9439;BME280;5176;42.622;25.386;2023-04-26T03:27:57;96200.44;;;12.81;100.00
9439;BME280;5176;42.622;25.386;2023-04-26T03:30:26;96201.25;;;12.81;100.00
9439;BME280;5176;42.622;25.386;2023-04-26T03:32:55;96205.25;;;12.76;100.00
9439;BME280;5176;42.622;25.386;2023-04-26T03:35:24;96201.25;;;12.72;100.00
9439;BME280;5176;42.622;25.386;2023-04-26T03:37:53;96203.06;;;12.71;100.00
9439;BME280;5176;42.622;25.386;2023-04-26T03:40:23;96198.84;;;12.49;100.00
9439;BME280;5176;42.622;25.386;2023-04-26T03:42:52;96198.38;;;12.25;100.00
9439;BME280;5176;42.622;25.386;2023-04-26T03:45:20;96205.53;;;12.23;100.00
9439;BME280;5176;42.622;25.386;2023-04-26T03:47:49;96211.31;;;12.07;100.00
9439;BME280;5176;42.622;25.386;2023-04-26T03:50:18;96207.25;;;12.03;100.00
9439;BME280;5176;42.622;25.386;2023-04-26T03:52:46;96199.94;;;11.97;100.00
9439;BME280;5176;42.622;25.386;2023-04-26T03:55:15;96201.28;;;11.91;100.00
9439;BME280;5176;42.622;25.386;2023-04-26T03:57:46;96217.34;;;11.98;100.00
9439;BME280;5176;42.622;25.386;2023-04-26T04:00:15;96216.94;;;12.03;100.00
9439;BME280;5176;42.622;25.386;2023-04-26T04:02:45;96232.34;;;12.17;100.00
9439;BME280;5176;42.622;25.386;2023-04-26T04:05:14;96226.56;;;12.23;100.00
9439;BME280;5176;42.622;25.386;2023-04-26T04:07:43;96234.34;;;12.24;100.00
9439;BME280;5176;42.622;25.386;2023-04-26T04:10:12;96233.22;;;12.27;100.00
9439;BME280;5176;42.622;25.386;2023-04-26T04:12:42;96232.94;;;12.30;100.00
9439;BME280;5176;42.622;25.386;2023-04-26T04:15:13;96236.69;;;12.27;100.00
9439;BME280;5176;42.622;25.386;2023-04-26T04:17:42;96241.41;;;12.34;100.00
9439;BME280;5176;42.622;25.386;2023-04-26T04:20:12;96245.31;;;12.39;100.00
9439;BME280;5176;42.622;25.386;2023-04-26T04:22:41;96242.41;;;12.42;100.00
9439;BME280;5176;42.622;25.386;2023-04-26T04:25:10;96229.69;;;12.47;100.00
9439;BME280;5176;42.622;25.386;2023-04-26T04:27:41;96233.00;;;12.49;100.00
9439;BME280;5176;42.622;25.386;2023-04-26T04:30:14;96224.00;;;12.42;100.00
9439;BME280;5176;42.622;25.386;2023-04-26T04:32:43;96218.28;;;12.27;100.00
9439;BME280;5176;42.622;25.386;2023-04-26T04:35:12;96229.16;;;12.13;100.00
9439;BME280;5176;42.622;25.386;2023-04-26T04:37:42;96223.78;;;12.15;100.00
9439;BME280;5176;42.622;25.386;2023-04-26T04:40:11;96221.59;;;12.20;100.00
9439;BME280;5176;42.622;25.386;2023-04-26T04:42:41;96216.50;;;12.28;100.00
9439;BME280;5176;42.622;25.386;2023-04-26T04:45:14;96216.94;;;12.33;100.00
9439;BME280;5176;42.622;25.386;2023-04-26T04:47:43;96224.97;;;12.41;100.00
9439;BME280;5176;42.622;25.386;2023-04-26T04:50:12;96219.72;;;12.41;100.00
9439;BME280;5176;42.622;25.386;2023-04-26T04:52:42;96224.31;;;12.49;100.00
9439;BME280;5176;42.622;25.386;2023-04-26T04:55:11;96216.44;;;12.59;100.00
9439;BME280;5176;42.622;25.386;2023-04-26T04:57:40;96219.38;;;12.75;100.00
9439;BME280;5176;42.622;25.386;2023-04-26T05:00:10;96222.72;;;12.87;100.00
9439;BME280;5176;42.622;25.386;2023-04-26T05:02:41;96219.97;;;12.98;100.00
9439;BME280;5176;42.622;25.386;2023-04-26T05:05:10;96225.81;;;13.11;100.00
9439;BME280;5176;42.622;25.386;2023-04-26T05:07:39;96225.69;;;13.22;100.00
9439;BME280;5176;42.622;25.386;2023-04-26T05:10:09;96219.19;;;13.26;100.00
9439;BME280;5176;42.622;25.386;2023-04-26T05:12:38;96221.66;;;13.28;100.00
9439;BME280;5176;42.622;25.386;2023-04-26T05:15:07;96212.53;;;13.32;100.00
9439;BME280;5176;42.622;25.386;2023-04-26T05:17:36;96217.78;;;13.42;100.00
9439;BME280;5176;42.622;25.386;2023-04-26T05:20:08;96212.94;;;13.47;100.00
9439;BME280;5176;42.622;25.386;2023-04-26T05:22:37;96207.81;;;13.45;100.00
9439;BME280;5176;42.622;25.386;2023-04-26T05:25:07;96201.97;;;13.51;100.00
9439;BME280;5176;42.622;25.386;2023-04-26T05:27:36;96207.50;;;13.58;100.00
9439;BME280;5176;42.622;25.386;2023-04-26T05:30:06;96201.53;;;13.56;100.00
9439;BME280;5176;42.622;25.386;2023-04-26T05:32:36;96204.59;;;13.61;100.00
9439;BME280;5176;42.622;25.386;2023-04-26T05:35:07;96196.38;;;13.74;100.00
9439;BME280;5176;42.622;25.386;2023-04-26T05:37:36;96203.72;;;13.70;100.00
9439;BME280;5176;42.622;25.386;2023-04-26T05:40:07;96204.16;;;13.66;100.00
9439;BME280;5176;42.622;25.386;2023-04-26T05:42:38;96213.31;;;13.71;100.00
9439;BME280;5176;42.622;25.386;2023-04-26T05:45:09;96213.63;;;13.58;100.00
9439;BME280;5176;42.622;25.386;2023-04-26T05:47:37;96214.88;;;13.45;100.00
9439;BME280;5176;42.622;25.386;2023-04-26T05:50:08;96222.34;;;13.49;100.00
9439;BME280;5176;42.622;25.386;2023-04-26T05:52:37;96217.34;;;13.46;100.00
9439;BME280;5176;42.622;25.386;2023-04-26T05:55:06;96212.50;;;13.51;100.00
9439;BME280;5176;42.622;25.386;2023-04-26T05:57:36;96218.47;;;13.53;100.00
9439;BME280;5176;42.622;25.386;2023-04-26T06:00:06;96220.09;;;13.64;100.00
9439;BME280;5176;42.622;25.386;2023-04-26T06:02:35;96226.16;;;13.84;100.00
9439;BME280;5176;42.622;25.386;2023-04-26T06:05:05;96215.84;;;14.00;99.99
9439;BME280;5176;42.622;25.386;2023-04-26T06:07:35;96221.47;;;14.15;99.15
9439;BME280;5176;42.622;25.386;2023-04-26T06:10:06;96219.66;;;14.25;99.23
9439;BME280;5176;42.622;25.386;2023-04-26T06:12:35;96228.91;;;14.29;97.30
9439;BME280;5176;42.622;25.386;2023-04-26T06:15:05;96220.47;;;14.26;96.03
9439;BME280;5176;42.622;25.386;2023-04-26T06:17:34;96224.44;;;14.39;92.96
9439;BME280;5176;42.622;25.386;2023-04-26T06:20:03;96228.44;;;14.53;91.20
9439;BME280;5176;42.622;25.386;2023-04-26T06:22:32;96227.75;;;14.79;92.69
9439;BME280;5176;42.622;25.386;2023-04-26T06:25:05;96230.84;;;14.92;90.14
9439;BME280;5176;42.622;25.386;2023-04-26T06:27:34;96231.72;;;14.83;89.66
9439;BME280;5176;42.622;25.386;2023-04-26T06:30:06;96221.19;;;15.01;88.31
9439;BME280;5176;42.622;25.386;2023-04-26T06:32:35;96219.69;;;15.16;85.26
9439;BME280;5176;42.622;25.386;2023-04-26T06:35:04;96218.25;;;15.39;89.29
9439;BME280;5176;42.622;25.386;2023-04-26T06:37:33;96216.72;;;15.72;87.27
9439;BME280;5176;42.622;25.386;2023-04-26T06:40:05;96218.09;;;15.85;83.94
9439;BME280;5176;42.622;25.386;2023-04-26T06:42:34;96231.69;;;15.46;83.36
9439;BME280;5176;42.622;25.386;2023-04-26T06:45:04;96219.53;;;15.17;85.14
9439;BME280;5176;42.622;25.386;2023-04-26T06:47:33;96221.59;;;15.06;84.71
9439;BME280;5176;42.622;25.386;2023-04-26T06:50:02;96215.28;;;14.89;84.39
9439;BME280;5176;42.622;25.386;2023-04-26T06:52:31;96222.63;;;14.95;83.73
9439;BME280;5176;42.622;25.386;2023-04-26T06:55:01;96218.16;;;15.31;84.86
9439;BME280;5176;42.622;25.386;2023-04-26T06:57:32;96221.34;;;15.52;84.95
9439;BME280;5176;42.622;25.386;2023-04-26T07:00:00;96219.66;;;15.69;79.42
9439;BME280;5176;42.622;25.386;2023-04-26T07:02:31;96216.78;;;15.80;76.00
9439;BME280;5176;42.622;25.386;2023-04-26T07:05:00;96220.09;;;16.08;75.96
9439;BME280;5176;42.622;25.386;2023-04-26T07:07:31;96218.88;;;16.29;74.22
9439;BME280;5176;42.622;25.386;2023-04-26T07:10:00;96218.09;;;16.11;72.63
9439;BME280;5176;42.622;25.386;2023-04-26T07:12:29;96216.38;;;16.27;73.62
9439;BME280;5176;42.622;25.386;2023-04-26T07:14:59;96218.03;;;16.28;71.76
9439;BME280;5176;42.622;25.386;2023-04-26T07:17:28;96212.16;;;16.43;72.52
9439;BME280;5176;42.622;25.386;2023-04-26T07:19:56;96209.59;;;16.67;72.21
9439;BME280;5176;42.622;25.386;2023-04-26T07:22:25;96213.97;;;16.84;69.34
9439;BME280;5176;42.622;25.386;2023-04-26T07:24:54;96208.50;;;16.78;69.47
9439;BME280;5176;42.622;25.386;2023-04-26T07:27:22;96207.72;;;16.94;68.79
9439;BME280;5176;42.622;25.386;2023-04-26T07:29:53;96216.31;;;16.96;69.53
9439;BME280;5176;42.622;25.386;2023-04-26T07:32:23;96202.44;;;17.02;66.76
9439;BME280;5176;42.622;25.386;2023-04-26T07:34:52;96211.75;;;17.22;67.09
9439;BME280;5176;42.622;25.386;2023-04-26T07:37:20;96214.72;;;17.35;66.19
9439;BME280;5176;42.622;25.386;2023-04-26T07:39:49;96206.94;;;17.50;66.53
9439;BME280;5176;42.622;25.386;2023-04-26T07:42:17;96207.16;;;17.73;65.71
9439;BME280;5176;42.622;25.386;2023-04-26T07:44:47;96202.47;;;17.67;64.02
9439;BME280;5176;42.622;25.386;2023-04-26T07:47:15;96215.25;;;17.47;66.23
9439;BME280;5176;42.622;25.386;2023-04-26T07:49:45;96208.78;;;17.66;64.94
9439;BME280;5176;42.622;25.386;2023-04-26T07:52:14;96211.75;;;17.55;64.10
9439;BME280;5176;42.622;25.386;2023-04-26T07:54:44;96213.75;;;17.85;65.54
9439;BME280;5176;42.622;25.386;2023-04-26T07:57:13;96207.53;;;18.26;59.05
9439;BME280;5176;42.622;25.386;2023-04-26T07:59:43;96214.84;;;18.15;56.30
9439;BME280;5176;42.622;25.386;2023-04-26T08:02:11;96219.13;;;18.33;57.85
9439;BME280;5176;42.622;25.386;2023-04-26T08:04:48;96210.38;;;18.71;60.50
9439;BME280;5176;42.622;25.386;2023-04-26T08:07:18;96216.81;;;19.08;54.18
9439;BME280;5176;42.622;25.386;2023-04-26T08:09:47;96213.66;;;19.13;54.49
9439;BME280;5176;42.622;25.386;2023-04-26T08:12:16;96224.16;;;19.29;55.11
9439;BME280;5176;42.622;25.386;2023-04-26T08:14:44;96218.38;;;19.48;53.06
9439;BME280;5176;42.622;25.386;2023-04-26T08:17:13;96214.66;;;19.57;52.55
9439;BME280;5176;42.622;25.386;2023-04-26T08:19:42;96207.09;;;19.46;57.08
9439;BME280;5176;42.622;25.386;2023-04-26T08:22:11;96210.78;;;19.37;53.25
9439;BME280;5176;42.622;25.386;2023-04-26T08:24:40;96209.44;;;19.41;53.10
9439;BME280;5176;42.622;25.386;2023-04-26T08:27:09;96208.63;;;19.41;49.07
9439;BME280;5176;42.622;25.386;2023-04-26T08:29:37;96205.28;;;19.39;50.01
9439;BME280;5176;42.622;25.386;2023-04-26T08:32:06;96216.81;;;19.31;48.29
9439;BME280;5176;42.622;25.386;2023-04-26T08:34:35;96207.66;;;19.11;48.44
9439;BME280;5176;42.622;25.386;2023-04-26T08:37:05;96210.25;;;18.96;48.90
9439;BME280;5176;42.622;25.386;2023-04-26T08:39:35;96205.97;;;18.47;49.14
9439;BME280;5176;42.622;25.386;2023-04-26T08:42:05;96210.44;;;18.47;50.42
9439;BME280;5176;42.622;25.386;2023-04-26T08:44:41;96208.66;;;18.39;50.00
9439;BME280;5176;42.622;25.386;2023-04-26T08:47:15;96214.19;;;18.21;49.84
9439;BME280;5176;42.622;25.386;2023-04-26T08:49:44;96212.84;;;18.26;50.87
9439;BME280;5176;42.622;25.386;2023-04-26T08:52:16;96214.34;;;18.20;51.09
9439;BME280;5176;42.622;25.386;2023-04-26T08:54:51;96222.09;;;18.30;51.90
9439;BME280;5176;42.622;25.386;2023-04-26T08:57:21;96224.88;;;18.44;51.13
9439;BME280;5176;42.622;25.386;2023-04-26T08:59:55;96220.69;;;18.66;52.38
9439;BME280;5176;42.622;25.386;2023-04-26T09:02:24;96215.66;;;18.71;50.41
9439;BME280;5176;42.622;25.386;2023-04-26T09:04:53;96220.09;;;18.79;48.49
9439;BME280;5176;42.622;25.386;2023-04-26T09:07:28;96221.19;;;19.01;49.85
9439;BME280;5176;42.622;25.386;2023-04-26T09:10:00;96215.69;;;19.02;50.50
9439;BME280;5176;42.622;25.386;2023-04-26T09:12:31;96213.66;;;18.82;49.60
9439;BME280;5176;42.622;25.386;2023-04-26T09:15:01;96217.00;;;18.75;49.26
9439;BME280;5176;42.622;25.386;2023-04-26T09:17:31;96208.19;;;18.75;50.73
9439;BME280;5176;42.622;25.386;2023-04-26T09:20:01;96208.84;;;18.77;50.45
9439;BME280;5176;42.622;25.386;2023-04-26T09:22:34;96201.41;;;18.64;51.85
9439;BME280;5176;42.622;25.386;2023-04-26T09:25:04;96203.66;;;18.84;56.58
9439;BME280;5176;42.622;25.386;2023-04-26T09:27:35;96202.66;;;18.85;55.06
9439;BME280;5176;42.622;25.386;2023-04-26T09:30:06;96212.59;;;18.91;54.89
9439;BME280;5176;42.622;25.386;2023-04-26T09:32:49;96218.06;;;18.89;53.52
9439;BME280;5176;42.622;25.386;2023-04-26T09:35:27;96220.91;;;18.88;54.90
9439;BME280;5176;42.622;25.386;2023-04-26T09:37:57;96237.81;;;18.95;55.22
9439;BME280;5176;42.622;25.386;2023-04-26T09:40:29;96226.19;;;18.96;55.60
9439;BME280;5176;42.622;25.386;2023-04-26T09:43:01;96230.28;;;18.98;53.95
9439;BME280;5176;42.622;25.386;2023-04-26T09:45:32;96226.88;;;18.90;56.04
9439;BME280;5176;42.622;25.386;2023-04-26T09:48:19;96237.25;;;18.68;58.23
9439;BME280;5176;42.622;25.386;2023-04-26T09:50:49;96248.09;;;18.42;62.72
9439;BME280;5176;42.622;25.386;2023-04-26T09:53:28;96245.66;;;18.24;64.98
9439;BME280;5176;42.622;25.386;2023-04-26T09:56:06;96236.63;;;17.86;64.57
9439;BME280;5176;42.622;25.386;2023-04-26T09:58:36;96240.25;;;17.61;68.54
9439;BME280;5176;42.622;25.386;2023-04-26T10:01:06;96241.22;;;17.27;68.10
9439;BME280;5176;42.622;25.386;2023-04-26T10:03:36;96229.53;;;16.87;68.67
9439;BME280;5176;42.622;25.386;2023-04-26T10:06:05;96232.84;;;16.89;72.06
9439;BME280;5176;42.622;25.386;2023-04-26T10:08:35;96242.19;;;16.68;73.77
9439;BME280;5176;42.622;25.386;2023-04-26T10:11:06;96234.88;;;16.19;74.44
9439;BME280;5176;42.622;25.386;2023-04-26T10:13:36;96231.19;;;16.12;76.22
9439;BME280;5176;42.622;25.386;2023-04-26T10:16:05;96224.97;;;15.95;76.65
9439;BME280;5176;42.622;25.386;2023-04-26T10:18:36;96218.81;;;15.87;76.81
9439;BME280;5176;42.622;25.386;2023-04-26T10:21:10;96210.28;;;16.01;80.88
9439;BME280;5176;42.622;25.386;2023-04-26T10:23:40;96207.66;;;16.01;78.90
9439;BME280;5176;42.622;25.386;2023-04-26T10:29:17;96210.63;;;16.32;79.13
9439;BME280;5176;42.622;25.386;2023-04-26T10:32:10;96205.91;;;16.18;75.63
9439;BME280;5176;42.622;25.386;2023-04-26T10:34:43;96204.81;;;16.28;70.32
9439;BME280;5176;42.622;25.386;2023-04-26T10:37:13;96215.34;;;16.54;71.40
9439;BME280;5176;42.622;25.386;2023-04-26T10:39:42;96204.59;;;16.56;71.03
9439;BME280;5176;42.622;25.386;2023-04-26T10:42:19;96208.44;;;16.61;71.39
9439;BME280;5176;42.622;25.386;2023-04-26T10:44:52;96205.13;;;16.59;75.46
9439;BME280;5176;42.622;25.386;2023-04-26T10:47:22;96192.22;;;16.65;67.78
9439;BME280;5176;42.622;25.386;2023-04-26T10:49:51;96199.69;;;16.69;67.09
9439;BME280;5176;42.622;25.386;2023-04-26T10:52:20;96200.50;;;16.61;63.99
9439;BME280;5176;42.622;25.386;2023-04-26T10:54:55;96191.38;;;16.56;67.38
9439;BME280;5176;42.622;25.386;2023-04-26T10:57:48;96189.53;;;16.99;65.45
9439;BME280;5176;42.622;25.386;2023-04-26T11:00:24;96186.94;;;17.48;64.30
9439;BME280;5176;42.622;25.386;2023-04-26T11:02:56;96184.41;;;17.79;63.97
9439;BME280;5176;42.622;25.386;2023-04-26T11:05:53;96191.03;;;17.99;59.74
9439;BME280;5176;42.622;25.386;2023-04-26T11:08:25;96189.34;;;18.14;60.00
9439;BME280;5176;42.622;25.386;2023-04-26T11:11:06;96188.25;;;17.92;56.20
9439;BME280;5176;42.622;25.386;2023-04-26T11:13:40;96194.50;;;18.08;56.82
9439;BME280;5176;42.622;25.386;2023-04-26T11:16:12;96193.78;;;18.22;54.73
9439;BME280;5176;42.622;25.386;2023-04-26T11:18:42;96186.94;;;18.36;54.54
9439;BME280;5176;42.622;25.386;2023-04-26T11:21:12;96193.09;;;18.28;50.78
9439;BME280;5176;42.622;25.386;2023-04-26T11:23:53;96186.31;;;18.17;47.87
9439;BME280;5176;42.622;25.386;2023-04-26T11:26:22;96204.06;;;18.17;47.71
9439;BME280;5176;42.622;25.386;2023-04-26T11:28:52;96187.88;;;18.04;47.89
9439;BME280;5176;42.622;25.386;2023-04-26T11:31:22;96188.38;;;17.99;47.62
9439;BME280;5176;42.622;25.386;2023-04-26T11:33:50;96193.16;;;18.04;50.25
9439;BME280;5176;42.622;25.386;2023-04-26T11:36:21;96186.88;;;18.05;49.41
9439;BME280;5176;42.622;25.386;2023-04-26T11:38:51;96181.59;;;17.88;45.90
9439;BME280;5176;42.622;25.386;2023-04-26T11:41:22;96179.13;;;17.79;46.85
9439;BME280;5176;42.622;25.386;2023-04-26T11:43:51;96175.34;;;17.73;47.41
9439;BME280;5176;42.622;25.386;2023-04-26T11:46:19;96175.00;;;17.76;47.25
9439;BME280;5176;42.622;25.386;2023-04-26T11:48:51;96172.34;;;17.92;46.85
9439;BME280;5176;42.622;25.386;2023-04-26T11:51:20;96169.31;;;18.04;46.62
9439;BME280;5176;42.622;25.386;2023-04-26T11:53:50;96168.94;;;18.15;46.06
9439;BME280;5176;42.622;25.386;2023-04-26T11:56:20;96163.28;;;18.26;45.15
9439;BME280;5176;42.622;25.386;2023-04-26T11:58:50;96168.72;;;18.24;45.61
9439;BME280;5176;42.622;25.386;2023-04-26T12:01:20;96172.94;;;18.11;44.82
9439;BME280;5176;42.622;25.386;2023-04-26T12:03:51;96175.09;;;18.07;45.16
9439;BME280;5176;42.622;25.386;2023-04-26T12:06:25;96171.97;;;17.95;45.74
9439;BME280;5176;42.622;25.386;2023-04-26T12:08:56;96169.50;;;17.69;45.09
9439;BME280;5176;42.622;25.386;2023-04-26T12:11:25;96173.34;;;17.51;44.71
9439;BME280;5176;42.622;25.386;2023-04-26T12:13:57;96177.66;;;17.35;44.92
9439;BME280;5176;42.622;25.386;2023-04-26T12:16:27;96181.63;;;17.23;45.05
9439;BME280;5176;42.622;25.386;2023-04-26T12:18:57;96179.44;;;17.10;44.16
9439;BME280;5176;42.622;25.386;2023-04-26T12:21:26;96179.97;;;17.06;45.02
9439;BME280;5176;42.622;25.386;2023-04-26T12:23:54;96186.56;;;17.02;45.08
9439;BME280;5176;42.622;25.386;2023-04-26T12:26:42;96188.19;;;16.95;44.53
9439;BME280;5176;42.622;25.386;2023-04-26T12:29:11;96181.38;;;16.84;44.75
9439;BME280;5176;42.622;25.386;2023-04-26T12:31:40;96185.19;;;16.81;44.98
9439;BME280;5176;42.622;25.386;2023-04-26T12:34:10;96182.38;;;16.83;46.10
9439;BME280;5176;42.622;25.386;2023-04-26T12:36:39;96185.19;;;16.73;44.89
9439;BME280;5176;42.622;25.386;2023-04-26T12:39:09;96188.13;;;16.70;46.72
9439;BME280;5176;42.622;25.386;2023-04-26T12:41:40;96190.25;;;16.58;45.76
9439;BME280;5176;42.622;25.386;2023-04-26T12:44:09;96187.59;;;16.58;45.28
9439;BME280;5176;42.622;25.386;2023-04-26T12:46:38;96196.19;;;16.60;46.92
9439;BME280;5176;42.622;25.386;2023-04-26T12:49:07;96187.91;;;16.55;46.31
9439;BME280;5176;42.622;25.386;2023-04-26T12:51:37;96194.19;;;16.54;45.74
9439;BME280;5176;42.622;25.386;2023-04-26T12:54:05;96183.59;;;16.46;45.62
9439;BME280;5176;42.622;25.386;2023-04-26T12:56:36;96191.19;;;16.49;45.58
9439;BME280;5176;42.622;25.386;2023-04-26T12:59:10;96184.44;;;16.55;45.74
9439;BME280;5176;42.622;25.386;2023-04-26T13:01:38;96189.06;;;16.53;44.94
9439;BME280;5176;42.622;25.386;2023-04-26T13:04:07;96192.69;;;16.52;45.15
9439;BME280;5176;42.622;25.386;2023-04-26T13:06:37;96187.06;;;16.47;45.21
9439;BME280;5176;42.622;25.386;2023-04-26T13:09:06;96190.19;;;16.50;44.73
9439;BME280;5176;42.622;25.386;2023-04-26T13:11:35;96187.75;;;16.57;44.69
9439;BME280;5176;42.622;25.386;2023-04-26T13:14:03;96190.56;;;16.63;44.95
9439;BME280;5176;42.622;25.386;2023-04-26T13:16:32;96182.94;;;16.52;45.40
9439;BME280;5176;42.622;25.386;2023-04-26T13:19:01;96186.56;;;16.51;45.46
9439;BME280;5176;42.622;25.386;2023-04-26T13:21:30;96186.03;;;16.40;45.39
9439;BME280;5176;42.622;25.386;2023-04-26T13:24:00;96185.94;;;16.23;46.30
9439;BME280;5176;42.622;25.386;2023-04-26T13:26:29;96186.28;;;16.20;45.80